sensor_id;sensor_type;location;lat;lon;timestamp;P1;durP1;ratioP1;P2;durP2;ratioP2
67442;SDS011;54311;51.726;5.154;2024-02-21T00:00:26;13.40;;;8.70;;
67442;SDS011;54311;51.726;5.154;2024-02-21T00:02:51;13.75;;;8.93;;
67442;SDS011;54311;51.726;5.154;2024-02-21T00:05:18;16.85;;;9.45;;
67442;SDS011;54311;51.726;5.154;2024-02-21T00:07:43;11.32;;;8.75;;
67442;SDS011;54311;51.726;5.154;2024-02-21T00:10:08;13.27;;;8.48;;
67442;SDS011;54311;51.726;5.154;2024-02-21T00:12:34;14.50;;;9.68;;
67442;SDS011;54311;51.726;5.154;2024-02-21T00:14:59;15.90;;;9.00;;
67442;SDS011;54311;51.726;5.154;2024-02-21T00:17:25;11.98;;;9.35;;
67442;SDS011;54311;51.726;5.154;2024-02-21T00:19:51;14.57;;;8.52;;
67442;SDS011;54311;51.726;5.154;2024-02-21T00:22:16;15.38;;;9.32;;
67442;SDS011;54311;51.726;5.154;2024-02-21T00:24:42;16.08;;;8.65;;
67442;SDS011;54311;51.726;5.154;2024-02-21T00:27:07;14.20;;;10.05;;
67442;SDS011;54311;51.726;5.154;2024-02-21T00:29:32;12.80;;;9.05;;
67442;SDS011;54311;51.726;5.154;2024-02-21T00:31:59;18.17;;;9.55;;
67442;SDS011;54311;51.726;5.154;2024-02-21T00:34:24;13.15;;;8.75;;
67442;SDS011;54311;51.726;5.154;2024-02-21T00:36:50;15.07;;;8.65;;
67442;SDS011;54311;51.726;5.154;2024-02-21T00:39:15;9.77;;;8.00;;
67442;SDS011;54311;51.726;5.154;2024-02-21T00:41:41;15.05;;;7.63;;
67442;SDS011;54311;51.726;5.154;2024-02-21T00:44:06;12.25;;;8.15;;
67442;SDS011;54311;51.726;5.154;2024-02-21T00:46:31;16.08;;;8.50;;
67442;SDS011;54311;51.726;5.154;2024-02-21T00:48:57;16.52;;;8.95;;
67442;SDS011;54311;51.726;5.154;2024-02-21T00:51:22;13.05;;;9.30;;
67442;SDS011;54311;51.726;5.154;2024-02-21T00:53:47;15.50;;;8.88;;
67442;SDS011;54311;51.726;5.154;2024-02-21T00:56:13;14.27;;;8.40;;
67442;SDS011;54311;51.726;5.154;2024-02-21T00:58:38;9.52;;;8.63;;
67442;SDS011;54311;51.726;5.154;2024-02-21T01:01:04;11.52;;;8.88;;
67442;SDS011;54311;51.726;5.154;2024-02-21T01:03:29;13.35;;;8.57;;
67442;SDS011;54311;51.726;5.154;2024-02-21T01:05:54;15.25;;;9.05;;
67442;SDS011;54311;51.726;5.154;2024-02-21T01:08:20;14.13;;;8.93;;
67442;SDS011;54311;51.726;5.154;2024-02-21T01:10:45;16.88;;;8.63;;
67442;SDS011;54311;51.726;5.154;2024-02-21T01:13:10;13.68;;;9.00;;
67442;SDS011;54311;51.726;5.154;2024-02-21T01:15:36;12.88;;;9.63;;
67442;SDS011;54311;51.726;5.154;2024-02-21T01:18:01;14.70;;;10.57;;
67442;SDS011;54311;51.726;5.154;2024-02-21T01:20:27;20.73;;;10.93;;
67442;SDS011;54311;51.726;5.154;2024-02-21T01:22:52;14.27;;;10.07;;
67442;SDS011;54311;51.726;5.154;2024-02-21T01:25:18;18.02;;;11.38;;
67442;SDS011;54311;51.726;5.154;2024-02-21T01:27:43;16.42;;;10.18;;
67442;SDS011;54311;51.726;5.154;2024-02-21T01:30:08;20.02;;;11.38;;
67442;SDS011;54311;51.726;5.154;2024-02-21T01:32:35;17.02;;;10.50;;
67442;SDS011;54311;51.726;5.154;2024-02-21T01:35:01;20.67;;;12.07;;
67442;SDS011;54311;51.726;5.154;2024-02-21T01:37:26;20.45;;;11.65;;
67442;SDS011;54311;51.726;5.154;2024-02-21T01:39:52;17.98;;;11.57;;
67442;SDS011;54311;51.726;5.154;2024-02-21T01:42:17;18.20;;;11.90;;
67442;SDS011;54311;51.726;5.154;2024-02-21T01:44:43;17.63;;;12.32;;
67442;SDS011;54311;51.726;5.154;2024-02-21T01:47:08;19.75;;;12.13;;
67442;SDS011;54311;51.726;5.154;2024-02-21T01:49:33;22.23;;;13.05;;
67442;SDS011;54311;51.726;5.154;2024-02-21T01:51:59;21.13;;;13.80;;
67442;SDS011;54311;51.726;5.154;2024-02-21T01:54:24;19.05;;;14.15;;
67442;SDS011;54311;51.726;5.154;2024-02-21T01:56:50;19.83;;;13.05;;
67442;SDS011;54311;51.726;5.154;2024-02-21T01:59:15;19.90;;;13.38;;
67442;SDS011;54311;51.726;5.154;2024-02-21T02:01:41;22.15;;;14.50;;
67442;SDS011;54311;51.726;5.154;2024-02-21T02:04:06;19.55;;;13.45;;
67442;SDS011;54311;51.726;5.154;2024-02-21T02:06:32;21.17;;;13.75;;
67442;SDS011;54311;51.726;5.154;2024-02-21T02:08:58;19.35;;;13.05;;
67442;SDS011;54311;51.726;5.154;2024-02-21T02:11:23;22.25;;;14.02;;
67442;SDS011;54311;51.726;5.154;2024-02-21T02:13:48;19.10;;;12.73;;
67442;SDS011;54311;51.726;5.154;2024-02-21T02:16:14;23.67;;;12.65;;
67442;SDS011;54311;51.726;5.154;2024-02-21T02:18:39;17.73;;;13.13;;
67442;SDS011;54311;51.726;5.154;2024-02-21T02:21:05;19.20;;;13.35;;
67442;SDS011;54311;51.726;5.154;2024-02-21T02:23:36;25.90;;;13.50;;
67442;SDS011;54311;51.726;5.154;2024-02-21T02:26:01;25.02;;;13.23;;
67442;SDS011;54311;51.726;5.154;2024-02-21T02:28:27;25.17;;;13.05;;
67442;SDS011;54311;51.726;5.154;2024-02-21T02:30:52;20.33;;;12.25;;
67442;SDS011;54311;51.726;5.154;2024-02-21T02:33:18;21.27;;;13.23;;
67442;SDS011;54311;51.726;5.154;2024-02-21T02:35:44;22.52;;;12.40;;
67442;SDS011;54311;51.726;5.154;2024-02-21T02:38:09;18.13;;;11.85;;
67442;SDS011;54311;51.726;5.154;2024-02-21T02:40:37;22.35;;;12.52;;
67442;SDS011;54311;51.726;5.154;2024-02-21T02:43:03;21.42;;;12.07;;
67442;SDS011;54311;51.726;5.154;2024-02-21T02:45:28;17.73;;;10.50;;
67442;SDS011;54311;51.726;5.154;2024-02-21T02:47:54;19.35;;;12.07;;
67442;SDS011;54311;51.726;5.154;2024-02-21T02:50:20;16.42;;;11.23;;
67442;SDS011;54311;51.726;5.154;2024-02-21T02:52:45;19.73;;;10.43;;
67442;SDS011;54311;51.726;5.154;2024-02-21T02:55:11;19.23;;;10.38;;
67442;SDS011;54311;51.726;5.154;2024-02-21T02:57:36;14.95;;;10.50;;
67442;SDS011;54311;51.726;5.154;2024-02-21T03:00:02;21.25;;;11.23;;
67442;SDS011;54311;51.726;5.154;2024-02-21T03:02:27;22.67;;;10.95;;
67442;SDS011;54311;51.726;5.154;2024-02-21T03:04:53;18.80;;;10.95;;
67442;SDS011;54311;51.726;5.154;2024-02-21T03:07:19;17.13;;;10.15;;
67442;SDS011;54311;51.726;5.154;2024-02-21T03:09:45;17.20;;;10.88;;
67442;SDS011;54311;51.726;5.154;2024-02-21T03:12:10;19.10;;;10.90;;
67442;SDS011;54311;51.726;5.154;2024-02-21T03:14:36;21.25;;;10.73;;
67442;SDS011;54311;51.726;5.154;2024-02-21T03:17:01;18.02;;;10.20;;
67442;SDS011;54311;51.726;5.154;2024-02-21T03:19:27;18.65;;;10.63;;
67442;SDS011;54311;51.726;5.154;2024-02-21T03:21:53;16.13;;;10.35;;
67442;SDS011;54311;51.726;5.154;2024-02-21T03:24:19;18.02;;;10.55;;
67442;SDS011;54311;51.726;5.154;2024-02-21T03:26:44;18.20;;;10.45;;
67442;SDS011;54311;51.726;5.154;2024-02-21T03:29:13;14.15;;;10.48;;
67442;SDS011;54311;51.726;5.154;2024-02-21T03:31:39;14.68;;;10.77;;
67442;SDS011;54311;51.726;5.154;2024-02-21T03:34:04;15.93;;;10.88;;
67442;SDS011;54311;51.726;5.154;2024-02-21T03:36:30;22.38;;;11.95;;
67442;SDS011;54311;51.726;5.154;2024-02-21T03:38:55;16.02;;;11.75;;
67442;SDS011;54311;51.726;5.154;2024-02-21T03:41:21;14.55;;;11.10;;
67442;SDS011;54311;51.726;5.154;2024-02-21T03:43:46;15.13;;;10.40;;
67442;SDS011;54311;51.726;5.154;2024-02-21T03:46:12;17.73;;;10.25;;
67442;SDS011;54311;51.726;5.154;2024-02-21T03:48:37;16.20;;;9.70;;
67442;SDS011;54311;51.726;5.154;2024-02-21T03:51:02;16.65;;;10.73;;
67442;SDS011;54311;51.726;5.154;2024-02-21T03:53:28;17.90;;;10.63;;
67442;SDS011;54311;51.726;5.154;2024-02-21T03:55:53;11.68;;;9.90;;
67442;SDS011;54311;51.726;5.154;2024-02-21T03:58:19;16.17;;;10.20;;
67442;SDS011;54311;51.726;5.154;2024-02-21T04:00:45;26.20;;;11.23;;
67442;SDS011;54311;51.726;5.154;2024-02-21T04:03:10;17.75;;;11.05;;
67442;SDS011;54311;51.726;5.154;2024-02-21T04:05:35;16.67;;;11.63;;
67442;SDS011;54311;51.726;5.154;2024-02-21T04:08:03;20.52;;;10.80;;
67442;SDS011;54311;51.726;5.154;2024-02-21T04:10:29;12.77;;;10.48;;
67442;SDS011;54311;51.726;5.154;2024-02-21T04:12:55;26.60;;;10.68;;
67442;SDS011;54311;51.726;5.154;2024-02-21T04:15:20;21.73;;;12.98;;
67442;SDS011;54311;51.726;5.154;2024-02-21T04:17:45;20.88;;;13.02;;
67442;SDS011;54311;51.726;5.154;2024-02-21T04:20:14;21.73;;;12.70;;
67442;SDS011;54311;51.726;5.154;2024-02-21T04:22:40;20.30;;;12.48;;
67442;SDS011;54311;51.726;5.154;2024-02-21T04:25:06;23.63;;;12.52;;
67442;SDS011;54311;51.726;5.154;2024-02-21T04:27:31;20.63;;;13.00;;
67442;SDS011;54311;51.726;5.154;2024-02-21T04:29:57;15.10;;;11.82;;
67442;SDS011;54311;51.726;5.154;2024-02-21T04:32:22;19.42;;;12.93;;
67442;SDS011;54311;51.726;5.154;2024-02-21T04:34:47;17.02;;;13.13;;
67442;SDS011;54311;51.726;5.154;2024-02-21T04:37:13;20.50;;;14.10;;
67442;SDS011;54311;51.726;5.154;2024-02-21T04:39:38;21.73;;;13.32;;
67442;SDS011;54311;51.726;5.154;2024-02-21T04:42:04;20.42;;;14.05;;
67442;SDS011;54311;51.726;5.154;2024-02-21T04:44:29;24.63;;;14.65;;
67442;SDS011;54311;51.726;5.154;2024-02-21T04:46:54;19.77;;;14.02;;
67442;SDS011;54311;51.726;5.154;2024-02-21T04:49:20;29.50;;;15.10;;
67442;SDS011;54311;51.726;5.154;2024-02-21T04:51:45;27.10;;;16.13;;
67442;SDS011;54311;51.726;5.154;2024-02-21T04:54:10;31.20;;;15.60;;
67442;SDS011;54311;51.726;5.154;2024-02-21T04:56:36;23.65;;;14.75;;
67442;SDS011;54311;51.726;5.154;2024-02-21T04:59:01;30.13;;;15.57;;
67442;SDS011;54311;51.726;5.154;2024-02-21T05:01:27;24.60;;;14.27;;
67442;SDS011;54311;51.726;5.154;2024-02-21T05:03:53;21.77;;;16.23;;
67442;SDS011;54311;51.726;5.154;2024-02-21T05:06:18;22.52;;;15.35;;
67442;SDS011;54311;51.726;5.154;2024-02-21T05:08:44;22.02;;;16.50;;
67442;SDS011;54311;51.726;5.154;2024-02-21T05:11:09;24.90;;;16.33;;
67442;SDS011;54311;51.726;5.154;2024-02-21T05:13:35;26.13;;;16.35;;
67442;SDS011;54311;51.726;5.154;2024-02-21T05:16:00;25.33;;;15.95;;
67442;SDS011;54311;51.726;5.154;2024-02-21T05:18:26;23.77;;;15.98;;
67442;SDS011;54311;51.726;5.154;2024-02-21T05:20:52;28.75;;;15.90;;
67442;SDS011;54311;51.726;5.154;2024-02-21T05:23:18;26.30;;;16.48;;
67442;SDS011;54311;51.726;5.154;2024-02-21T05:25:43;28.67;;;17.25;;
67442;SDS011;54311;51.726;5.154;2024-02-21T05:28:08;27.13;;;15.00;;
67442;SDS011;54311;51.726;5.154;2024-02-21T05:30:34;25.92;;;15.68;;
67442;SDS011;54311;51.726;5.154;2024-02-21T05:33:03;23.58;;;15.55;;
67442;SDS011;54311;51.726;5.154;2024-02-21T05:35:29;30.95;;;15.48;;
67442;SDS011;54311;51.726;5.154;2024-02-21T05:37:54;26.13;;;15.48;;
67442;SDS011;54311;51.726;5.154;2024-02-21T05:40:19;24.88;;;16.30;;
67442;SDS011;54311;51.726;5.154;2024-02-21T05:42:45;28.02;;;14.80;;
67442;SDS011;54311;51.726;5.154;2024-02-21T05:45:10;22.23;;;15.35;;
67442;SDS011;54311;51.726;5.154;2024-02-21T05:47:35;26.73;;;15.88;;
67442;SDS011;54311;51.726;5.154;2024-02-21T05:50:01;25.02;;;15.98;;
67442;SDS011;54311;51.726;5.154;2024-02-21T05:52:26;25.38;;;15.57;;
67442;SDS011;54311;51.726;5.154;2024-02-21T05:54:52;22.45;;;14.65;;
67442;SDS011;54311;51.726;5.154;2024-02-21T05:57:17;22.65;;;14.32;;
67442;SDS011;54311;51.726;5.154;2024-02-21T05:59:43;26.25;;;15.13;;
67442;SDS011;54311;51.726;5.154;2024-02-21T06:02:09;21.65;;;14.57;;
67442;SDS011;54311;51.726;5.154;2024-02-21T06:04:34;20.75;;;13.43;;
67442;SDS011;54311;51.726;5.154;2024-02-21T06:07:00;21.42;;;14.45;;
67442;SDS011;54311;51.726;5.154;2024-02-21T06:09:26;22.27;;;13.55;;
67442;SDS011;54311;51.726;5.154;2024-02-21T06:11:52;27.80;;;14.98;;
67442;SDS011;54311;51.726;5.154;2024-02-21T06:14:17;21.27;;;13.07;;
67442;SDS011;54311;51.726;5.154;2024-02-21T06:16:43;23.95;;;14.85;;
67442;SDS011;54311;51.726;5.154;2024-02-21T06:19:12;19.25;;;13.30;;
67442;SDS011;54311;51.726;5.154;2024-02-21T06:21:37;18.52;;;13.77;;
67442;SDS011;54311;51.726;5.154;2024-02-21T06:24:03;26.60;;;15.40;;
67442;SDS011;54311;51.726;5.154;2024-02-21T06:26:28;19.23;;;13.05;;
67442;SDS011;54311;51.726;5.154;2024-02-21T06:28:54;21.40;;;13.70;;
67442;SDS011;54311;51.726;5.154;2024-02-21T06:31:19;24.52;;;14.38;;
67442;SDS011;54311;51.726;5.154;2024-02-21T06:33:44;16.73;;;13.57;;
67442;SDS011;54311;51.726;5.154;2024-02-21T06:36:10;21.65;;;14.35;;
67442;SDS011;54311;51.726;5.154;2024-02-21T06:38:35;24.17;;;14.80;;
67442;SDS011;54311;51.726;5.154;2024-02-21T06:41:00;24.20;;;14.27;;
67442;SDS011;54311;51.726;5.154;2024-02-21T06:43:27;25.45;;;15.52;;
67442;SDS011;54311;51.726;5.154;2024-02-21T06:45:53;31.73;;;15.10;;
67442;SDS011;54311;51.726;5.154;2024-02-21T06:48:20;29.10;;;15.70;;
67442;SDS011;54311;51.726;5.154;2024-02-21T06:50:45;23.25;;;16.38;;
67442;SDS011;54311;51.726;5.154;2024-02-21T06:53:10;25.25;;;13.98;;
67442;SDS011;54311;51.726;5.154;2024-02-21T06:55:36;20.80;;;13.77;;
67442;SDS011;54311;51.726;5.154;2024-02-21T06:58:01;19.33;;;14.77;;
67442;SDS011;54311;51.726;5.154;2024-02-21T07:00:28;23.27;;;14.70;;
67442;SDS011;54311;51.726;5.154;2024-02-21T07:02:56;28.02;;;14.27;;
67442;SDS011;54311;51.726;5.154;2024-02-21T07:05:21;25.10;;;15.35;;
67442;SDS011;54311;51.726;5.154;2024-02-21T07:07:47;27.63;;;15.70;;
67442;SDS011;54311;51.726;5.154;2024-02-21T07:10:12;22.85;;;15.60;;
67442;SDS011;54311;51.726;5.154;2024-02-21T07:12:37;24.25;;;14.07;;
67442;SDS011;54311;51.726;5.154;2024-02-21T07:15:07;22.10;;;14.38;;
67442;SDS011;54311;51.726;5.154;2024-02-21T07:17:32;22.50;;;15.45;;
67442;SDS011;54311;51.726;5.154;2024-02-21T07:19:57;18.13;;;13.85;;
67442;SDS011;54311;51.726;5.154;2024-02-21T07:22:24;23.67;;;14.50;;
67442;SDS011;54311;51.726;5.154;2024-02-21T07:24:49;23.10;;;14.18;;
67442;SDS011;54311;51.726;5.154;2024-02-21T07:27:15;27.63;;;14.82;;
67442;SDS011;54311;51.726;5.154;2024-02-21T07:29:40;23.08;;;14.57;;
67442;SDS011;54311;51.726;5.154;2024-02-21T07:32:06;21.05;;;13.38;;
67442;SDS011;54311;51.726;5.154;2024-02-21T07:34:31;22.00;;;13.80;;
67442;SDS011;54311;51.726;5.154;2024-02-21T07:36:57;22.73;;;13.70;;
67442;SDS011;54311;51.726;5.154;2024-02-21T07:39:22;23.25;;;13.80;;
67442;SDS011;54311;51.726;5.154;2024-02-21T07:41:47;20.60;;;15.48;;
67442;SDS011;54311;51.726;5.154;2024-02-21T07:44:14;20.45;;;14.45;;
67442;SDS011;54311;51.726;5.154;2024-02-21T07:46:42;23.13;;;14.25;;
67442;SDS011;54311;51.726;5.154;2024-02-21T07:49:07;24.73;;;13.90;;
67442;SDS011;54311;51.726;5.154;2024-02-21T07:51:33;19.77;;;14.63;;
67442;SDS011;54311;51.726;5.154;2024-02-21T07:54:00;17.50;;;13.88;;
67442;SDS011;54311;51.726;5.154;2024-02-21T07:56:27;22.55;;;13.90;;
67442;SDS011;54311;51.726;5.154;2024-02-21T07:58:52;21.05;;;13.55;;
67442;SDS011;54311;51.726;5.154;2024-02-21T08:01:20;20.67;;;13.32;;
67442;SDS011;54311;51.726;5.154;2024-02-21T08:03:46;22.27;;;13.52;;
67442;SDS011;54311;51.726;5.154;2024-02-21T08:06:12;20.95;;;13.25;;
67442;SDS011;54311;51.726;5.154;2024-02-21T08:08:38;18.58;;;14.00;;
67442;SDS011;54311;51.726;5.154;2024-02-21T08:11:03;21.63;;;12.98;;
67442;SDS011;54311;51.726;5.154;2024-02-21T08:13:28;24.92;;;13.32;;
67442;SDS011;54311;51.726;5.154;2024-02-21T08:15:54;19.00;;;12.85;;
67442;SDS011;54311;51.726;5.154;2024-02-21T08:18:19;23.83;;;14.63;;
67442;SDS011;54311;51.726;5.154;2024-02-21T08:20:45;15.38;;;12.10;;
67442;SDS011;54311;51.726;5.154;2024-02-21T08:23:15;22.33;;;12.82;;
67442;SDS011;54311;51.726;5.154;2024-02-21T08:25:44;21.63;;;13.25;;
67442;SDS011;54311;51.726;5.154;2024-02-21T08:28:10;18.85;;;12.68;;
67442;SDS011;54311;51.726;5.154;2024-02-21T08:30:35;19.90;;;13.27;;
67442;SDS011;54311;51.726;5.154;2024-02-21T08:33:01;16.67;;;13.13;;
67442;SDS011;54311;51.726;5.154;2024-02-21T08:35:26;18.38;;;12.68;;
67442;SDS011;54311;51.726;5.154;2024-02-21T08:37:53;19.48;;;12.18;;
67442;SDS011;54311;51.726;5.154;2024-02-21T08:40:18;22.05;;;12.88;;
67442;SDS011;54311;51.726;5.154;2024-02-21T08:42:46;19.88;;;14.38;;
67442;SDS011;54311;51.726;5.154;2024-02-21T08:45:11;17.63;;;12.50;;
67442;SDS011;54311;51.726;5.154;2024-02-21T08:47:39;15.15;;;11.95;;
67442;SDS011;54311;51.726;5.154;2024-02-21T08:50:04;16.63;;;12.02;;
67442;SDS011;54311;51.726;5.154;2024-02-21T08:52:31;20.50;;;13.98;;
67442;SDS011;54311;51.726;5.154;2024-02-21T08:54:56;20.17;;;13.30;;
67442;SDS011;54311;51.726;5.154;2024-02-21T08:57:22;18.02;;;12.73;;
67442;SDS011;54311;51.726;5.154;2024-02-21T08:59:47;18.35;;;12.05;;
67442;SDS011;54311;51.726;5.154;2024-02-21T09:02:13;19.52;;;11.63;;
67442;SDS011;54311;51.726;5.154;2024-02-21T09:04:38;16.15;;;12.13;;
67442;SDS011;54311;51.726;5.154;2024-02-21T09:07:03;14.95;;;12.00;;
67442;SDS011;54311;51.726;5.154;2024-02-21T09:09:31;15.18;;;11.40;;
67442;SDS011;54311;51.726;5.154;2024-02-21T09:11:58;16.00;;;11.07;;
67442;SDS011;54311;51.726;5.154;2024-02-21T09:14:30;17.10;;;10.75;;
67442;SDS011;54311;51.726;5.154;2024-02-21T09:16:55;13.70;;;11.07;;
67442;SDS011;54311;51.726;5.154;2024-02-21T09:19:21;16.52;;;11.25;;
67442;SDS011;54311;51.726;5.154;2024-02-21T09:21:46;11.93;;;10.73;;
67442;SDS011;54311;51.726;5.154;2024-02-21T09:24:11;16.67;;;10.90;;
67442;SDS011;54311;51.726;5.154;2024-02-21T09:26:37;11.23;;;10.07;;
67442;SDS011;54311;51.726;5.154;2024-02-21T09:29:02;14.45;;;9.45;;
67442;SDS011;54311;51.726;5.154;2024-02-21T09:31:28;13.75;;;10.75;;
67442;SDS011;54311;51.726;5.154;2024-02-21T09:33:54;13.18;;;9.98;;
67442;SDS011;54311;51.726;5.154;2024-02-21T09:36:19;13.05;;;10.90;;
67442;SDS011;54311;51.726;5.154;2024-02-21T09:38:46;14.23;;;10.80;;
67442;SDS011;54311;51.726;5.154;2024-02-21T09:41:15;9.90;;;8.98;;
67442;SDS011;54311;51.726;5.154;2024-02-21T09:43:42;10.00;;;8.77;;
67442;SDS011;54311;51.726;5.154;2024-02-21T09:46:12;12.60;;;9.30;;
67442;SDS011;54311;51.726;5.154;2024-02-21T09:51:34;10.13;;;9.20;;
67442;SDS011;54311;51.726;5.154;2024-02-21T09:54:00;10.63;;;8.77;;
67442;SDS011;54311;51.726;5.154;2024-02-21T09:56:25;11.05;;;10.15;;
67442;SDS011;54311;51.726;5.154;2024-02-21T09:58:50;11.27;;;10.15;;
67442;SDS011;54311;51.726;5.154;2024-02-21T10:01:16;12.40;;;11.10;;
67442;SDS011;54311;51.726;5.154;2024-02-21T10:03:41;13.90;;;10.63;;
67442;SDS011;54311;51.726;5.154;2024-02-21T10:06:08;16.75;;;10.77;;
67442;SDS011;54311;51.726;5.154;2024-02-21T10:08:34;13.13;;;10.80;;
67442;SDS011;54311;51.726;5.154;2024-02-21T10:10:59;12.90;;;11.70;;
67442;SDS011;54311;51.726;5.154;2024-02-21T10:13:26;13.38;;;12.07;;
67442;SDS011;54311;51.726;5.154;2024-02-21T10:16:03;13.45;;;11.02;;
67442;SDS011;54311;51.726;5.154;2024-02-21T10:18:29;12.90;;;11.73;;
67442;SDS011;54311;51.726;5.154;2024-02-21T10:21:04;12.65;;;11.30;;
67442;SDS011;54311;51.726;5.154;2024-02-21T10:23:41;16.15;;;11.02;;
67442;SDS011;54311;51.726;5.154;2024-02-21T10:26:16;12.68;;;10.60;;
67442;SDS011;54311;51.726;5.154;2024-02-21T10:28:45;10.70;;;9.77;;
67442;SDS011;54311;51.726;5.154;2024-02-21T10:31:20;11.23;;;10.30;;
67442;SDS011;54311;51.726;5.154;2024-02-21T10:36:21;14.02;;;11.02;;
67442;SDS011;54311;51.726;5.154;2024-02-21T10:38:49;13.18;;;11.88;;
67442;SDS011;54311;51.726;5.154;2024-02-21T10:41:14;16.95;;;11.55;;
67442;SDS011;54311;51.726;5.154;2024-02-21T10:43:41;13.18;;;11.75;;
67442;SDS011;54311;51.726;5.154;2024-02-21T10:46:07;14.18;;;11.52;;
67442;SDS011;54311;51.726;5.154;2024-02-21T10:48:45;14.20;;;11.70;;
67442;SDS011;54311;51.726;5.154;2024-02-21T10:51:20;16.50;;;12.30;;
67442;SDS011;54311;51.726;5.154;2024-02-21T10:56:38;13.93;;;11.80;;
67442;SDS011;54311;51.726;5.154;2024-02-21T10:59:06;14.30;;;10.60;;
67442;SDS011;54311;51.726;5.154;2024-02-21T11:04:08;12.85;;;11.50;;
67442;SDS011;54311;51.726;5.154;2024-02-21T11:06:36;19.33;;;11.85;;
67442;SDS011;54311;51.726;5.154;2024-02-21T11:09:03;14.43;;;11.02;;
67442;SDS011;54311;51.726;5.154;2024-02-21T11:11:32;15.05;;;11.05;;
67442;SDS011;54311;51.726;5.154;2024-02-21T11:14:11;11.98;;;10.93;;
67442;SDS011;54311;51.726;5.154;2024-02-21T11:16:43;12.35;;;9.60;;
67442;SDS011;54311;51.726;5.154;2024-02-21T11:19:20;14.65;;;10.07;;
67442;SDS011;54311;51.726;5.154;2024-02-21T11:21:46;12.77;;;10.95;;
67442;SDS011;54311;51.726;5.154;2024-02-21T11:24:33;16.30;;;10.65;;
67442;SDS011;54311;51.726;5.154;2024-02-21T11:27:15;14.57;;;10.05;;
67442;SDS011;54311;51.726;5.154;2024-02-21T11:29:45;11.63;;;10.40;;
67442;SDS011;54311;51.726;5.154;2024-02-21T11:32:15;16.98;;;9.95;;
67442;SDS011;54311;51.726;5.154;2024-02-21T11:34:59;12.02;;;9.85;;
67442;SDS011;54311;51.726;5.154;2024-02-21T11:37:35;9.88;;;8.65;;
67442;SDS011;54311;51.726;5.154;2024-02-21T11:40:04;11.13;;;9.20;;
67442;SDS011;54311;51.726;5.154;2024-02-21T11:42:32;10.93;;;9.20;;
67442;SDS011;54311;51.726;5.154;2024-02-21T11:44:57;14.07;;;8.70;;
67442;SDS011;54311;51.726;5.154;2024-02-21T11:47:23;11.70;;;9.65;;
67442;SDS011;54311;51.726;5.154;2024-02-21T11:49:49;10.70;;;9.63;;
67442;SDS011;54311;51.726;5.154;2024-02-21T11:52:18;9.50;;;8.38;;
67442;SDS011;54311;51.726;5.154;2024-02-21T11:54:49;9.27;;;8.02;;
67442;SDS011;54311;51.726;5.154;2024-02-21T11:57:15;10.13;;;7.90;;
67442;SDS011;54311;51.726;5.154;2024-02-21T11:59:41;10.82;;;8.30;;
67442;SDS011;54311;51.726;5.154;2024-02-21T12:02:06;9.10;;;7.95;;
67442;SDS011;54311;51.726;5.154;2024-02-21T12:04:32;8.93;;;7.88;;
67442;SDS011;54311;51.726;5.154;2024-02-21T12:06:58;15.27;;;8.73;;
67442;SDS011;54311;51.726;5.154;2024-02-21T12:09:24;9.82;;;7.43;;
67442;SDS011;54311;51.726;5.154;2024-02-21T12:12:00;8.60;;;7.68;;
67442;SDS011;54311;51.726;5.154;2024-02-21T12:14:27;11.60;;;8.35;;
67442;SDS011;54311;51.726;5.154;2024-02-21T12:16:54;10.68;;;7.53;;
67442;SDS011;54311;51.726;5.154;2024-02-21T12:19:19;9.57;;;7.55;;
67442;SDS011;54311;51.726;5.154;2024-02-21T12:21:45;8.98;;;7.53;;
67442;SDS011;54311;51.726;5.154;2024-02-21T12:24:32;10.40;;;7.82;;
67442;SDS011;54311;51.726;5.154;2024-02-21T12:26:56;13.35;;;7.20;;
67442;SDS011;54311;51.726;5.154;2024-02-21T12:29:23;9.20;;;7.70;;
67442;SDS011;54311;51.726;5.154;2024-02-21T12:31:53;9.68;;;7.63;;
67442;SDS011;54311;51.726;5.154;2024-02-21T12:34:19;8.52;;;7.78;;
67442;SDS011;54311;51.726;5.154;2024-02-21T12:36:45;9.32;;;7.85;;
67442;SDS011;54311;51.726;5.154;2024-02-21T12:39:14;9.13;;;7.63;;
67442;SDS011;54311;51.726;5.154;2024-02-21T12:41:40;10.30;;;8.02;;
67442;SDS011;54311;51.726;5.154;2024-02-21T12:44:07;11.20;;;8.45;;
67442;SDS011;54311;51.726;5.154;2024-02-21T12:46:36;9.60;;;7.85;;
67442;SDS011;54311;51.726;5.154;2024-02-21T12:49:02;12.60;;;8.25;;
67442;SDS011;54311;51.726;5.154;2024-02-21T12:51:28;8.77;;;7.70;;
67442;SDS011;54311;51.726;5.154;2024-02-21T12:53:54;11.73;;;7.95;;
67442;SDS011;54311;51.726;5.154;2024-02-21T12:56:20;8.63;;;6.97;;
67442;SDS011;54311;51.726;5.154;2024-02-21T12:58:45;9.90;;;6.57;;
67442;SDS011;54311;51.726;5.154;2024-02-21T13:01:10;10.75;;;7.97;;
67442;SDS011;54311;51.726;5.154;2024-02-21T13:03:36;10.18;;;6.78;;
67442;SDS011;54311;51.726;5.154;2024-02-21T13:06:01;11.07;;;7.43;;
67442;SDS011;54311;51.726;5.154;2024-02-21T13:08:26;10.27;;;6.68;;
67442;SDS011;54311;51.726;5.154;2024-02-21T13:10:52;12.63;;;7.85;;
67442;SDS011;54311;51.726;5.154;2024-02-21T13:13:17;9.90;;;6.75;;
67442;SDS011;54311;51.726;5.154;2024-02-21T13:15:43;10.45;;;6.43;;
67442;SDS011;54311;51.726;5.154;2024-02-21T13:18:09;9.20;;;6.22;;
67442;SDS011;54311;51.726;5.154;2024-02-21T13:20:35;9.65;;;6.85;;
67442;SDS011;54311;51.726;5.154;2024-02-21T13:23:01;10.55;;;6.95;;
67442;SDS011;54311;51.726;5.154;2024-02-21T13:25:26;9.73;;;5.95;;
67442;SDS011;54311;51.726;5.154;2024-02-21T13:27:51;20.98;;;7.70;;
67442;SDS011;54311;51.726;5.154;2024-02-21T13:30:17;8.52;;;7.10;;
67442;SDS011;54311;51.726;5.154;2024-02-21T13:32:43;15.73;;;6.25;;
67442;SDS011;54311;51.726;5.154;2024-02-21T13:35:10;10.43;;;6.13;;
67442;SDS011;54311;51.726;5.154;2024-02-21T13:37:36;9.18;;;6.20;;
67442;SDS011;54311;51.726;5.154;2024-02-21T13:40:02;11.98;;;6.30;;
67442;SDS011;54311;51.726;5.154;2024-02-21T13:42:29;12.30;;;6.22;;
67442;SDS011;54311;51.726;5.154;2024-02-21T13:44:55;7.80;;;6.35;;
67442;SDS011;54311;51.726;5.154;2024-02-21T13:47:20;7.40;;;6.05;;
67442;SDS011;54311;51.726;5.154;2024-02-21T13:49:46;9.52;;;6.35;;
67442;SDS011;54311;51.726;5.154;2024-02-21T13:52:11;10.68;;;6.80;;
67442;SDS011;54311;51.726;5.154;2024-02-21T13:54:37;8.18;;;6.65;;
67442;SDS011;54311;51.726;5.154;2024-02-21T13:57:02;8.80;;;6.57;;
67442;SDS011;54311;51.726;5.154;2024-02-21T13:59:28;11.25;;;6.80;;
67442;SDS011;54311;51.726;5.154;2024-02-21T14:01:53;12.90;;;7.55;;
67442;SDS011;54311;51.726;5.154;2024-02-21T14:04:19;8.38;;;7.18;;
67442;SDS011;54311;51.726;5.154;2024-02-21T14:06:45;8.43;;;6.55;;
67442;SDS011;54311;51.726;5.154;2024-02-21T14:09:10;7.47;;;6.25;;
67442;SDS011;54311;51.726;5.154;2024-02-21T14:11:36;7.32;;;6.63;;
67442;SDS011;54311;51.726;5.154;2024-02-21T14:14:02;9.00;;;6.95;;
67442;SDS011;54311;51.726;5.154;2024-02-21T14:16:28;9.15;;;6.60;;
67442;SDS011;54311;51.726;5.154;2024-02-21T14:18:54;11.18;;;6.90;;
67442;SDS011;54311;51.726;5.154;2024-02-21T14:21:19;7.25;;;6.57;;
67442;SDS011;54311;51.726;5.154;2024-02-21T14:23:45;8.73;;;6.72;;
67442;SDS011;54311;51.726;5.154;2024-02-21T14:26:10;13.30;;;6.55;;
67442;SDS011;54311;51.726;5.154;2024-02-21T14:28:37;7.68;;;6.38;;
67442;SDS011;54311;51.726;5.154;2024-02-21T14:31:02;10.52;;;6.97;;
67442;SDS011;54311;51.726;5.154;2024-02-21T14:33:28;8.10;;;7.13;;